createdAt,value
2018-09-30T00:00:52.250Z,5.60
2018-09-30T00:03:20.535Z,5.73
2018-09-30T00:05:48.955Z,5.44
2018-09-30T00:08:17.326Z,5.27
2018-09-30T00:10:45.567Z,5.14
2018-09-30T00:13:13.855Z,4.99
2018-09-30T00:15:42.170Z,4.97
2018-09-30T00:18:10.449Z,4.97
2018-09-30T00:20:38.876Z,4.84
2018-09-30T00:23:07.580Z,4.43
2018-09-30T00:25:41.321Z,4.57
2018-09-30T00:28:09.669Z,4.40
2018-09-30T00:30:37.987Z,4.34
2018-09-30T00:33:06.343Z,4.39
2018-09-30T00:35:34.667Z,4.25
2018-09-30T00:38:03.307Z,4.28
2018-09-30T00:40:31.719Z,4.16
2018-09-30T00:43:00.035Z,4.04
2018-09-30T00:45:28.563Z,4.15
2018-09-30T00:47:57.107Z,4.08
2018-09-30T00:50:25.423Z,4.04
2018-09-30T00:52:53.801Z,4.15
2018-09-30T00:55:22.145Z,4.11
2018-09-30T00:57:50.558Z,4.06
2018-09-30T01:00:18.939Z,4.00
2018-09-30T01:02:47.256Z,3.87
2018-09-30T01:05:15.618Z,3.92
2018-09-30T01:07:43.971Z,3.87
2018-09-30T01:10:12.284Z,3.86
2018-09-30T01:12:40.635Z,3.87
2018-09-30T01:15:09.467Z,3.80
2018-09-30T01:17:37.903Z,3.76
2018-09-30T01:20:06.239Z,3.85
2018-09-30T01:22:34.614Z,3.90
2018-09-30T01:25:02.950Z,3.70
2018-09-30T01:27:31.319Z,3.62
2018-09-30T01:29:59.686Z,3.62
2018-09-30T01:32:28.095Z,3.68
2018-09-30T01:34:56.427Z,3.69
2018-09-30T01:37:24.794Z,3.60
2018-09-30T01:39:53.211Z,3.54
2018-09-30T01:42:21.531Z,3.49
2018-09-30T01:44:49.930Z,3.47
2018-09-30T01:47:18.311Z,3.40
2018-09-30T01:49:47.202Z,3.39
2018-09-30T01:52:26.890Z,3.40
2018-09-30T01:54:55.223Z,3.30
2018-09-30T01:57:24.657Z,3.09
2018-09-30T01:59:53.047Z,3.00
2018-09-30T02:02:21.391Z,2.90
2018-09-30T02:04:49.742Z,2.96
2018-09-30T02:07:18.075Z,2.98
2018-09-30T02:09:46.409Z,3.01
2018-09-30T02:12:14.739Z,2.87
2018-09-30T02:14:43.659Z,2.77
2018-09-30T02:17:11.971Z,2.83
2018-09-30T02:19:40.331Z,2.93
2018-09-30T02:22:08.643Z,2.92
2018-09-30T02:24:36.988Z,3.07
2018-09-30T02:27:05.296Z,2.94
2018-09-30T02:29:33.691Z,3.04
2018-09-30T02:32:02.211Z,3.00
2018-09-30T02:34:30.564Z,3.00
2018-09-30T02:36:59.409Z,2.90
2018-09-30T02:39:27.732Z,2.88
2018-09-30T02:41:56.075Z,2.97
2018-09-30T02:44:24.875Z,2.89
2018-09-30T02:46:53.392Z,2.90
2018-09-30T02:49:21.723Z,2.80
2018-09-30T02:51:50.064Z,2.80
2018-09-30T02:54:18.416Z,2.78
2018-09-30T02:56:46.795Z,2.74
2018-09-30T02:59:15.144Z,2.67
2018-09-30T03:01:43.455Z,2.80
2018-09-30T03:04:11.836Z,2.71
2018-09-30T03:06:45.339Z,2.72
2018-09-30T03:09:17.055Z,2.68
2018-09-30T03:11:45.772Z,2.60
2018-09-30T03:14:15.350Z,2.59
2018-09-30T03:16:45.435Z,2.59
2018-09-30T03:19:14.352Z,2.57
2018-09-30T03:21:42.700Z,2.60
2018-09-30T03:24:11.712Z,2.44
2018-09-30T03:26:40.680Z,2.44
2018-09-30T03:29:09.051Z,2.46
2018-09-30T03:31:37.491Z,2.37
2018-09-30T03:34:05.837Z,2.31
2018-09-30T03:36:34.168Z,2.30
2018-09-30T03:39:03.099Z,2.24
2018-09-30T03:41:31.439Z,2.10
2018-09-30T03:43:59.835Z,2.17
2018-09-30T03:46:28.164Z,2.29
2018-09-30T03:48:56.479Z,2.29
2018-09-30T03:51:25.887Z,2.27
2018-09-30T03:53:54.182Z,2.22
2018-09-30T03:56:22.572Z,2.17
2018-09-30T03:58:50.895Z,2.20
2018-09-30T04:01:19.257Z,2.18
2018-09-30T04:03:47.579Z,2.09
2018-09-30T04:06:15.962Z,2.09
2018-09-30T04:08:44.299Z,2.04
2018-09-30T04:11:12.691Z,2.13
2018-09-30T04:13:41.083Z,2.20
2018-09-30T04:16:09.447Z,2.15
2018-09-30T04:18:37.905Z,1.98
2018-09-30T04:21:06.292Z,1.98
2018-09-30T04:23:34.604Z,1.93
2018-09-30T04:26:02.996Z,1.85
2018-09-30T04:28:31.294Z,1.90
2018-09-30T04:30:59.631Z,1.87
2018-09-30T04:33:27.947Z,1.90
2018-09-30T04:35:56.459Z,1.93
2018-09-30T04:38:24.795Z,1.93
2018-09-30T04:40:53.127Z,2.03
2018-09-30T04:43:21.463Z,1.97
2018-09-30T04:45:49.859Z,1.90
2018-09-30T04:48:18.672Z,1.92
2018-09-30T04:50:47.039Z,1.87
2018-09-30T04:53:15.383Z,1.74
2018-09-30T04:55:43.755Z,1.66
2018-09-30T04:58:12.068Z,1.64
2018-09-30T05:00:40.480Z,1.70
2018-09-30T05:03:08.811Z,1.61
2018-09-30T05:05:37.241Z,1.68
2018-09-30T05:08:05.595Z,1.73
2018-09-30T05:10:33.962Z,1.86
2018-09-30T05:13:02.280Z,1.76
2018-09-30T05:15:30.611Z,1.67
2018-09-30T05:17:58.945Z,1.60
2018-09-30T05:20:27.403Z,1.62
2018-09-30T05:22:55.747Z,1.63
2018-09-30T05:25:24.063Z,1.64
2018-09-30T05:27:52.431Z,1.63
2018-09-30T05:30:20.812Z,1.76
2018-09-30T05:32:49.179Z,1.80
2018-09-30T05:35:17.591Z,1.75
2018-09-30T05:37:45.947Z,1.83
2018-09-30T05:40:14.715Z,2.04
2018-09-30T05:42:43.047Z,1.88
2018-09-30T05:45:11.431Z,1.97
2018-09-30T05:47:39.826Z,2.02
2018-09-30T05:50:08.195Z,1.95
2018-09-30T05:52:36.653Z,2.00
2018-09-30T05:55:05.227Z,1.91
2018-09-30T05:57:33.598Z,1.87
2018-09-30T06:00:01.959Z,1.98
2018-09-30T06:02:30.326Z,2.03
2018-09-30T06:04:58.658Z,2.07
2018-09-30T06:07:27.027Z,2.13
2018-09-30T06:09:55.339Z,2.23
2018-09-30T06:12:23.672Z,2.33
2018-09-30T06:14:52.011Z,2.42
2018-09-30T06:17:20.436Z,2.48
2018-09-30T06:19:48.835Z,2.47
2018-09-30T06:22:17.188Z,2.62
2018-09-30T06:24:45.579Z,2.63
2018-09-30T06:27:14.312Z,2.78
2018-09-30T06:29:42.772Z,2.81
2018-09-30T06:32:11.195Z,2.94
2018-09-30T06:34:39.470Z,3.18
2018-09-30T06:37:07.880Z,5.20
2018-09-30T06:39:36.219Z,8.41
2018-09-30T06:42:04.586Z,11.56
2018-09-30T06:44:32.919Z,12.77
2018-09-30T06:47:01.276Z,13.42
2018-09-30T06:49:29.647Z,13.39
2018-09-30T06:51:58.014Z,16.11
2018-09-30T06:54:26.386Z,17.43
2018-09-30T06:56:54.755Z,19.92
2018-09-30T06:59:23.133Z,19.99
2018-09-30T07:01:51.467Z,21.57
2018-09-30T07:04:19.799Z,22.35
2018-09-30T07:06:48.170Z,23.14
2018-09-30T07:09:16.491Z,23.23
2018-09-30T07:11:44.807Z,22.76
2018-09-30T07:14:13.156Z,22.92
2018-09-30T07:16:41.592Z,23.88
2018-09-30T07:19:09.950Z,25.30
2018-09-30T07:21:38.455Z,24.43
2018-09-30T07:24:07.204Z,23.45
2018-09-30T07:26:36.076Z,25.97
2018-09-30T07:29:04.447Z,24.66
2018-09-30T07:31:32.989Z,23.70
2018-09-30T07:34:01.347Z,23.69
2018-09-30T07:36:29.667Z,24.59
2018-09-30T07:38:58.063Z,27.90
2018-09-30T07:41:26.467Z,27.99
2018-09-30T07:43:54.839Z,27.45
2018-09-30T07:46:23.171Z,28.20
2018-09-30T07:48:51.535Z,27.49
2018-09-30T07:51:19.883Z,28.40
2018-09-30T07:53:48.299Z,27.73
2018-09-30T07:56:16.628Z,29.42
2018-09-30T07:58:45.196Z,30.20
2018-09-30T08:01:13.511Z,28.90
2018-09-30T08:03:42.091Z,27.66
2018-09-30T08:06:10.415Z,30.09
2018-09-30T08:08:38.778Z,30.98
2018-09-30T08:11:07.262Z,30.59
2018-09-30T08:13:36.079Z,31.42
2018-09-30T08:16:04.714Z,31.07
2018-09-30T08:18:33.071Z,29.34
2018-09-30T08:21:01.443Z,29.52
2018-09-30T08:23:30.007Z,32.58
2018-09-30T08:25:58.359Z,30.43
2018-09-30T08:28:26.911Z,31.66
2018-09-30T08:30:55.251Z,33.08
2018-09-30T08:33:23.591Z,31.19
2018-09-30T08:35:57.195Z,32.61
2018-09-30T08:38:34.177Z,32.91
2018-09-30T08:41:08.539Z,34.41
2018-09-30T08:43:38.931Z,35.10
2018-09-30T08:46:07.955Z,33.95
2018-09-30T08:48:36.335Z,33.06
2018-09-30T08:51:04.659Z,33.35
2018-09-30T08:53:32.999Z,33.52
2018-09-30T08:56:01.426Z,33.95
2018-09-30T08:58:30.333Z,30.59
2018-09-30T09:00:58.668Z,29.22
2018-09-30T09:03:27.178Z,32.60
2018-09-30T09:05:55.549Z,35.17
2018-09-30T09:08:23.875Z,33.45
2018-09-30T09:10:52.218Z,34.25
2018-09-30T09:13:20.570Z,33.27
2018-09-30T09:15:48.927Z,32.21
2018-09-30T09:18:17.263Z,33.80
2018-09-30T09:20:45.648Z,34.66
2018-09-30T09:23:13.964Z,34.13
2018-09-30T09:25:42.607Z,34.51
2018-09-30T09:28:11.458Z,36.30
2018-09-30T09:30:39.795Z,34.49
2018-09-30T09:33:08.179Z,35.97
2018-09-30T09:35:36.528Z,36.48
2018-09-30T09:38:04.881Z,36.34
2018-09-30T09:40:33.243Z,32.87
2018-09-30T09:43:01.555Z,34.14
2018-09-30T09:45:29.889Z,34.14
2018-09-30T09:47:58.215Z,33.11
2018-09-30T09:50:26.546Z,34.66
2018-09-30T09:52:54.859Z,32.88
2018-09-30T09:55:23.231Z,34.49
2018-09-30T09:57:51.575Z,33.29
2018-09-30T10:00:25.315Z,35.22
2018-09-30T10:02:53.708Z,36.22
2018-09-30T10:05:22.058Z,35.01
2018-09-30T10:07:50.411Z,34.22
2018-09-30T10:10:18.865Z,34.68
2018-09-30T10:12:47.412Z,33.02
2018-09-30T10:15:15.748Z,35.47
2018-09-30T10:17:44.108Z,33.62
2018-09-30T10:20:12.512Z,33.58
2018-09-30T10:22:40.839Z,36.18
2018-09-30T10:25:09.308Z,35.26
2018-09-30T10:27:37.667Z,34.53
2018-09-30T10:30:06.119Z,34.64
2018-09-30T10:32:34.432Z,35.94
2018-09-30T10:35:02.904Z,35.88
2018-09-30T10:37:31.235Z,36.38
2018-09-30T10:39:59.621Z,35.97
2018-09-30T10:42:28.383Z,35.29
2018-09-30T10:44:56.719Z,34.73
2018-09-30T10:47:25.170Z,35.69
2018-09-30T10:49:53.611Z,36.25
2018-09-30T10:52:21.975Z,35.63
2018-09-30T10:54:50.323Z,36.16
2018-09-30T10:57:18.863Z,35.31
2018-09-30T10:59:47.331Z,34.68
2018-09-30T11:02:15.703Z,36.89
2018-09-30T11:04:44.221Z,36.46
2018-09-30T11:07:13.503Z,34.70
2018-09-30T11:09:41.967Z,33.98
2018-09-30T11:12:10.246Z,36.04
2018-09-30T11:14:38.672Z,32.27
2018-09-30T11:17:07.360Z,35.62
2018-09-30T11:19:36.163Z,36.43
2018-09-30T11:22:04.507Z,35.94
2018-09-30T11:24:32.876Z,35.09
2018-09-30T11:27:01.219Z,35.36
2018-09-30T11:29:29.769Z,35.37
2018-09-30T11:31:58.230Z,35.73
2018-09-30T11:34:26.567Z,36.03
2018-09-30T11:36:55.095Z,36.72
2018-09-30T11:39:23.440Z,37.42
2018-09-30T11:41:51.764Z,35.73
2018-09-30T11:44:20.091Z,34.79
2018-09-30T11:46:48.439Z,34.17
2018-09-30T11:49:16.751Z,34.04
2018-09-30T11:51:45.460Z,34.90
2018-09-30T11:54:13.791Z,34.53
2018-09-30T11:56:43.582Z,33.73
2018-09-30T11:59:12.459Z,33.61
2018-09-30T12:01:41.187Z,35.51
2018-09-30T12:04:09.543Z,33.87
2018-09-30T12:06:38.003Z,35.00
2018-09-30T12:09:07.971Z,36.38
2018-09-30T12:11:36.311Z,35.76
2018-09-30T12:14:04.687Z,35.57
2018-09-30T12:16:33.107Z,33.28
2018-09-30T12:19:01.439Z,34.46
2018-09-30T12:21:29.791Z,31.43
2018-09-30T12:23:58.083Z,31.39
2018-09-30T12:26:26.465Z,32.91
2018-09-30T12:28:54.807Z,34.30
2018-09-30T12:31:23.211Z,34.18
2018-09-30T12:33:51.739Z,33.39
2018-09-30T12:36:20.174Z,34.86
2018-09-30T12:38:48.523Z,32.99
2018-09-30T12:41:16.874Z,34.41
2018-09-30T12:43:45.187Z,34.11
2018-09-30T12:46:13.988Z,33.82
2018-09-30T12:48:42.331Z,35.80
2018-09-30T12:51:10.842Z,34.22
2018-09-30T12:53:39.218Z,34.40
2018-09-30T12:56:07.983Z,34.75
2018-09-30T12:58:36.715Z,33.88
2018-09-30T13:01:05.459Z,34.63
2018-09-30T13:03:34.651Z,34.03
2018-09-30T13:06:02.956Z,34.86
2018-09-30T13:08:31.400Z,32.48
2018-09-30T13:10:59.707Z,29.60
2018-09-30T13:13:27.981Z,29.56
2018-09-30T13:15:56.299Z,30.53
2018-09-30T13:18:24.636Z,31.37
2018-09-30T13:20:52.997Z,32.68
2018-09-30T13:23:21.227Z,31.70
2018-09-30T13:25:49.527Z,31.42
2018-09-30T13:28:17.811Z,31.14
2018-09-30T13:30:46.104Z,33.19
2018-09-30T13:33:14.403Z,33.63
2018-09-30T13:35:42.723Z,33.15
2018-09-30T13:38:11.007Z,33.11
2018-09-30T13:40:39.509Z,31.89
2018-09-30T13:43:07.727Z,30.93
2018-09-30T13:45:36.041Z,31.98
2018-09-30T13:48:04.335Z,31.97
2018-09-30T13:50:32.627Z,31.02
2018-09-30T13:53:01.092Z,32.62
2018-09-30T13:55:29.443Z,32.42
2018-09-30T13:57:57.794Z,32.36
2018-09-30T14:00:26.091Z,31.87
2018-09-30T14:02:54.451Z,31.75
2018-09-30T14:05:22.767Z,32.28
2018-09-30T14:07:51.135Z,31.09
2018-09-30T14:10:20.127Z,30.45
2018-09-30T14:12:48.423Z,29.80
2018-09-30T14:15:16.735Z,30.31
2018-09-30T14:17:45.060Z,32.01
2018-09-30T14:20:13.400Z,31.33
2018-09-30T14:22:41.920Z,30.05
2018-09-30T14:25:10.222Z,29.97
2018-09-30T14:27:38.540Z,29.62
2018-09-30T14:30:06.899Z,30.96
2018-09-30T14:32:35.376Z,30.87
2018-09-30T14:35:03.859Z,30.80
2018-09-30T14:37:32.194Z,29.95
2018-09-30T14:40:00.504Z,30.38
2018-09-30T14:42:29.143Z,30.08
2018-09-30T14:44:57.447Z,29.66
2018-09-30T14:47:26.310Z,29.65
2018-09-30T14:49:54.671Z,28.65
2018-09-30T14:52:23.615Z,28.81
2018-09-30T14:54:51.899Z,28.30
2018-09-30T14:57:20.208Z,28.37
2018-09-30T14:59:48.529Z,28.81
2018-09-30T15:02:16.805Z,27.95
2018-09-30T15:04:45.191Z,27.21
2018-09-30T15:07:13.565Z,27.18
2018-09-30T15:09:41.836Z,26.64
2018-09-30T15:12:10.167Z,27.18
2018-09-30T15:14:38.480Z,27.81
2018-09-30T15:17:06.767Z,27.97
2018-09-30T15:19:35.083Z,28.02
2018-09-30T15:22:03.395Z,26.96
2018-09-30T15:24:31.675Z,27.21
2018-09-30T15:26:59.959Z,27.21
2018-09-30T15:29:28.391Z,26.98
2018-09-30T15:31:56.667Z,26.45
2018-09-30T15:34:24.981Z,26.44
2018-09-30T15:36:53.276Z,25.86
2018-09-30T15:39:21.579Z,25.30
2018-09-30T15:41:49.858Z,25.17
2018-09-30T15:44:18.162Z,24.60
2018-09-30T15:46:46.482Z,23.71
2018-09-30T15:49:15.255Z,23.16
2018-09-30T15:51:43.568Z,23.20
2018-09-30T15:54:11.859Z,22.77
2018-09-30T15:56:40.132Z,22.62
2018-09-30T15:59:08.443Z,22.19
2018-09-30T16:01:36.711Z,21.64
2018-09-30T16:04:05.047Z,21.63
2018-09-30T16:06:33.339Z,21.09
2018-09-30T16:09:01.655Z,20.83
2018-09-30T16:11:29.951Z,21.02
2018-09-30T16:13:58.266Z,20.71
2018-09-30T16:16:26.543Z,20.44
2018-09-30T16:18:54.851Z,20.23
2018-09-30T16:21:23.154Z,19.53
2018-09-30T16:23:51.463Z,19.42
2018-09-30T16:26:19.755Z,19.06
2018-09-30T16:28:48.059Z,18.84
2018-09-30T16:31:16.366Z,18.50
2018-09-30T16:33:44.806Z,18.41
2018-09-30T16:36:13.251Z,18.19
2018-09-30T16:38:41.571Z,17.81
2018-09-30T16:41:09.856Z,17.39
2018-09-30T16:43:38.236Z,17.20
2018-09-30T16:46:06.726Z,16.98
2018-09-30T16:48:35.047Z,16.85
2018-09-30T16:51:03.332Z,16.67
2018-09-30T16:53:31.651Z,16.47
2018-09-30T16:55:59.923Z,16.25
2018-09-30T16:58:28.203Z,16.07
2018-09-30T17:00:56.508Z,15.83
2018-09-30T17:03:24.818Z,15.56
2018-09-30T17:05:53.127Z,15.21
2018-09-30T17:08:21.415Z,14.89
2018-09-30T17:10:49.728Z,14.42
2018-09-30T17:13:18.062Z,13.99
2018-09-30T17:15:46.367Z,13.71
2018-09-30T17:18:14.673Z,13.34
2018-09-30T17:20:43.024Z,13.03
2018-09-30T17:23:11.316Z,12.75
2018-09-30T17:25:39.935Z,12.47
2018-09-30T17:28:08.220Z,12.36
2018-09-30T17:30:36.553Z,12.12
2018-09-30T17:33:04.840Z,12.03
2018-09-30T17:35:33.156Z,11.96
2018-09-30T17:38:01.531Z,11.90
2018-09-30T17:40:29.779Z,11.89
2018-09-30T17:42:58.079Z,11.75
2018-09-30T17:45:26.383Z,11.58
2018-09-30T17:47:55.124Z,11.35
2018-09-30T17:50:23.436Z,11.24
2018-09-30T17:52:51.752Z,11.20
2018-09-30T17:55:20.079Z,10.88
2018-09-30T17:57:48.387Z,10.97
2018-09-30T18:00:17.631Z,10.81
2018-09-30T18:02:45.916Z,10.71
2018-09-30T18:05:14.247Z,10.44
2018-09-30T18:07:42.567Z,10.34
2018-09-30T18:10:10.891Z,10.33
2018-09-30T18:12:39.191Z,10.33
2018-09-30T18:15:07.529Z,10.54
2018-09-30T18:17:35.827Z,10.47
2018-09-30T18:20:04.143Z,10.45
2018-09-30T18:22:32.900Z,10.37
2018-09-30T18:25:01.220Z,10.23
2018-09-30T18:27:29.675Z,10.26
2018-09-30T18:29:58.113Z,10.21
2018-09-30T18:32:26.411Z,10.02
2018-09-30T18:34:54.731Z,10.04
2018-09-30T18:37:23.629Z,9.99
2018-09-30T18:39:53.342Z,9.82
2018-09-30T18:42:22.011Z,9.71
2018-09-30T18:44:50.854Z,9.63
2018-09-30T18:47:19.365Z,9.52
2018-09-30T18:49:47.699Z,9.74
2018-09-30T18:52:16.012Z,9.61
2018-09-30T18:54:44.374Z,9.44
2018-09-30T18:57:13.003Z,9.32
2018-09-30T18:59:41.868Z,9.30
2018-09-30T19:02:10.643Z,9.14
2018-09-30T19:04:40.146Z,9.00
2018-09-30T19:07:08.538Z,8.94
2018-09-30T19:09:36.879Z,8.96
2018-09-30T19:12:05.252Z,8.87
2018-09-30T19:14:33.536Z,8.95
2018-09-30T19:17:01.831Z,8.94
2018-09-30T19:19:30.120Z,8.78
2018-09-30T19:21:58.423Z,8.72
2018-09-30T19:24:26.724Z,8.76
2018-09-30T19:26:55.052Z,8.57
2018-09-30T19:29:23.340Z,8.67
2018-09-30T19:31:51.884Z,8.69
2018-09-30T19:34:20.163Z,8.57
2018-09-30T19:36:48.455Z,8.48
2018-09-30T19:39:16.736Z,8.29
2018-09-30T19:41:45.106Z,8.09
2018-09-30T19:44:13.331Z,7.96
2018-09-30T19:46:41.657Z,8.12
2018-09-30T19:49:09.952Z,8.15
2018-09-30T19:51:38.247Z,8.04
2018-09-30T19:54:06.569Z,7.88
2018-09-30T19:56:34.860Z,7.93
2018-09-30T19:59:03.387Z,7.78
2018-09-30T20:01:31.724Z,7.94
2018-09-30T20:03:59.996Z,7.82
2018-09-30T20:06:28.291Z,7.75
2018-09-30T20:08:56.634Z,7.64
2018-09-30T20:11:24.915Z,7.62
2018-09-30T20:13:53.202Z,7.52
2018-09-30T20:16:21.505Z,7.64
2018-09-30T20:18:49.802Z,7.45
2018-09-30T20:21:18.121Z,7.46
2018-09-30T20:23:46.431Z,7.41
2018-09-30T20:26:14.751Z,7.60
2018-09-30T20:28:43.116Z,7.40
2018-09-30T20:31:11.739Z,7.52
2018-09-30T20:33:40.039Z,7.41
2018-09-30T20:36:08.339Z,7.43
2018-09-30T20:38:36.632Z,7.40
2018-09-30T20:41:04.931Z,7.38
2018-09-30T20:43:33.755Z,7.39
2018-09-30T20:46:02.308Z,7.40
2018-09-30T20:48:30.611Z,7.39
2018-09-30T20:50:59.121Z,7.24
2018-09-30T20:53:27.406Z,7.07
2018-09-30T20:55:55.748Z,7.19
2018-09-30T20:58:24.048Z,7.09
2018-09-30T21:00:52.451Z,7.07
2018-09-30T21:03:20.754Z,7.13
2018-09-30T21:06:21.827Z,7.08
2018-09-30T21:08:50.107Z,6.90
2018-09-30T21:11:18.435Z,6.83
2018-09-30T21:13:46.711Z,6.88
2018-09-30T21:16:15.279Z,6.79
2018-09-30T21:18:43.921Z,6.78
2018-09-30T21:21:12.243Z,6.66
2018-09-30T21:23:40.580Z,6.73
2018-09-30T21:26:08.915Z,6.70
2018-09-30T21:28:37.247Z,6.62
2018-09-30T21:31:05.718Z,6.67
2018-09-30T21:33:33.999Z,6.48
2018-09-30T21:36:02.324Z,6.50
2018-09-30T21:38:30.603Z,6.44
2018-09-30T21:40:58.902Z,6.30
2018-09-30T21:43:27.198Z,6.22
2018-09-30T21:45:55.507Z,6.30
2018-09-30T21:48:23.792Z,6.34
2018-09-30T21:50:52.051Z,6.20
2018-09-30T21:53:20.356Z,6.30
2018-09-30T21:55:48.647Z,6.44
2018-09-30T21:58:16.959Z,6.20
2018-09-30T22:00:50.368Z,6.32
2018-09-30T22:03:18.704Z,6.31
2018-09-30T22:05:46.994Z,6.28
2018-09-30T22:08:15.307Z,6.35
2018-09-30T22:10:43.576Z,6.22
2018-09-30T22:13:12.699Z,6.25
2018-09-30T22:15:41.370Z,6.39
2018-09-30T22:18:09.699Z,6.31
2018-09-30T22:20:38.011Z,6.29
2018-09-30T22:23:06.528Z,6.20
2018-09-30T22:25:34.819Z,6.14
2018-09-30T22:28:03.128Z,6.05
2018-09-30T22:30:31.963Z,6.04
2018-09-30T22:33:00.342Z,5.99
2018-09-30T22:35:28.655Z,6.03
2018-09-30T22:37:56.939Z,5.85
2018-09-30T22:40:25.426Z,5.95
2018-09-30T22:42:53.690Z,5.77
2018-09-30T22:45:21.976Z,5.90
2018-09-30T22:47:50.279Z,5.77
2018-09-30T22:50:18.663Z,5.63
2018-09-30T22:52:46.947Z,5.65
2018-09-30T22:55:15.231Z,5.61
2018-09-30T22:57:43.545Z,5.61
2018-09-30T23:00:11.852Z,5.75
2018-09-30T23:02:40.155Z,5.64
2018-09-30T23:05:09.364Z,5.64
2018-09-30T23:07:37.711Z,5.71
2018-09-30T23:10:08.503Z,5.46
2018-09-30T23:12:36.811Z,5.47
2018-09-30T23:15:05.151Z,5.65
2018-09-30T23:17:33.467Z,5.61
2018-09-30T23:20:01.855Z,5.65
2018-09-30T23:22:30.140Z,5.83
2018-09-30T23:24:58.473Z,5.77
2018-09-30T23:27:26.765Z,5.82
2018-09-30T23:29:55.036Z,5.72
2018-09-30T23:32:23.347Z,5.60
2018-09-30T23:34:51.607Z,5.50
2018-09-30T23:37:19.895Z,5.51
2018-09-30T23:39:48.213Z,5.56
2018-09-30T23:42:16.575Z,5.60
2018-09-30T23:44:45.003Z,5.66
2018-09-30T23:47:13.331Z,5.51
2018-09-30T23:49:41.659Z,5.51
2018-09-30T23:52:09.991Z,5.42
2018-09-30T23:54:38.666Z,5.49
2018-09-30T23:57:07.050Z,5.55
2018-09-30T23:59:35.376Z,5.62
